Time;durP1;ratioP1;P1;durP2;ratioP2;P2;SDS_P1;SDS_P2;PMS_P1;PMS_P2;Temp;Humidity;BMP_temperature;BMP_pressure;BME280_temperature;BME280_humidity;BME280_pressure;Samples;Min_cycle;Max_cycle;Signal;HPM_P1;HPM_P2
2022/12/29 00:01:28;;;;;;;6.88;5.72;;;10.10;99.90;;;;;;5048510;28;20067;-69
2022/12/29 00:03:55;;;;;;;6.68;5.80;;;10.10;99.90;;;;;;5063955;28;20059;-72
2022/12/29 00:06:22;;;;;;;10.75;6.25;;;10.20;99.90;;;;;;5045466;28;20095;-64
2022/12/29 00:08:50;;;;;;;8.82;6.25;;;10.20;99.90;;;;;;5062186;28;20053;-67
2022/12/29 00:11:18;;;;;;;12.43;6.40;;;10.10;99.90;;;;;;5059283;28;20064;-62
2022/12/29 00:16:29;;;;;;;8.18;5.68;;;10.10;99.90;;;;;;5055139;28;20485;-66
2022/12/29 00:18:56;;;;;;;7.05;5.93;;;10.10;99.90;;;;;;5055346;28;20110;-67
2022/12/29 00:35:12;;;;;;;6.80;4.80;;;10.20;99.90;;;;;;5053769;28;20072;-63
2022/12/29 00:45:55;;;;;;;6.07;5.18;;;10.30;99.90;;;;;;5036493;28;20050;-65
2022/12/29 00:51:03;;;;;;;5.90;4.90;;;10.30;99.90;;;;;;5053836;28;20060;-65
2022/12/29 00:53:30;;;;;;;5.38;4.57;;;10.30;99.90;;;;;;5053173;28;20084;-63
2022/12/29 00:55:58;;;;;;;7.70;4.57;;;10.40;99.90;;;;;;5052185;28;20084;-64
2022/12/29 00:58:25;;;;;;;6.28;4.60;;;10.40;99.90;;;;;;5053913;28;20073;-64
2022/12/29 01:00:51;;;;;;;6.40;4.85;;;10.40;99.90;;;;;;5054325;28;20096;-54
2022/12/29 01:03:18;;;;;;;6.53;4.20;;;10.40;99.90;;;;;;5054565;28;20107;-66
2022/12/29 01:05:45;;;;;;;5.25;4.28;;;10.40;99.90;;;;;;5053780;28;20053;-63
2022/12/29 01:08:12;;;;;;;6.85;4.82;;;10.40;99.90;;;;;;5053796;28;20113;-63
2022/12/29 01:10:38;;;;;;;5.78;4.72;;;10.40;99.90;;;;;;5052885;28;20126;-64
2022/12/29 01:13:06;;;;;;;7.30;4.53;;;10.40;99.90;;;;;;5048720;28;20092;-65
2022/12/29 01:15:33;;;;;;;6.78;4.47;;;10.40;99.90;;;;;;5054626;28;20045;-63
2022/12/29 01:17:59;;;;;;;5.30;4.07;;;10.40;99.90;;;;;;5051494;28;20084;-68
2022/12/29 01:20:27;;;;;;;5.22;3.97;;;10.40;99.90;;;;;;5059793;28;20052;-64
2022/12/29 01:22:54;;;;;;;4.32;3.70;;;10.40;99.90;;;;;;5063171;28;20127;-64
2022/12/29 01:25:21;;;;;;;9.55;4.13;;;10.40;99.90;;;;;;5065583;28;20500;-63
2022/12/29 01:27:47;;;;;;;5.40;3.90;;;10.40;99.90;;;;;;5053430;28;20084;-67
2022/12/29 01:30:16;;;;;;;5.63;4.20;;;10.40;99.90;;;;;;5053645;28;20073;-63
2022/12/29 01:32:42;;;;;;;4.80;3.92;;;10.40;99.90;;;;;;5052245;28;20053;-64
2022/12/29 01:35:10;;;;;;;4.22;3.45;;;10.40;99.90;;;;;;5052553;28;20049;-65
2022/12/29 01:37:37;;;;;;;4.40;3.20;;;10.40;99.90;;;;;;5040403;28;20054;-61
2022/12/29 01:40:05;;;;;;;5.00;3.75;;;10.50;99.90;;;;;;5054380;28;20044;-62
2022/12/29 01:42:32;;;;;;;4.88;3.85;;;10.50;99.90;;;;;;5052871;28;20077;-59
2022/12/29 01:44:59;;;;;;;4.65;3.80;;;10.50;99.90;;;;;;5052491;28;20057;-64
2022/12/29 01:47:31;;;;;;;6.10;4.00;;;10.50;99.90;;;;;;5051474;28;20099;-63
2022/12/29 01:49:59;;;;;;;5.25;3.65;;;10.50;99.90;;;;;;5052247;28;20088;-65
2022/12/29 01:52:28;;;;;;;4.10;3.30;;;10.50;99.90;;;;;;5053716;28;20122;-63
2022/12/29 01:54:54;;;;;;;7.75;3.70;;;10.50;99.90;;;;;;5053399;28;20132;-63
2022/12/29 01:57:22;;;;;;;6.70;3.65;;;10.50;99.90;;;;;;5051521;28;20092;-63
2022/12/29 01:59:51;;;;;;;4.32;3.65;;;10.60;99.90;;;;;;5049963;28;20077;-63
2022/12/29 02:02:17;;;;;;;6.28;3.42;;;10.60;99.90;;;;;;5050416;28;20084;-62
2022/12/29 02:04:45;;;;;;;5.35;3.63;;;10.60;99.90;;;;;;5052629;28;20045;-63
2022/12/29 02:07:14;;;;;;;4.15;3.45;;;10.60;99.90;;;;;;5053152;28;20053;-62
2022/12/29 02:09:41;;;;;;;4.47;3.75;;;10.60;99.90;;;;;;5052264;28;20053;-63
2022/12/29 02:12:08;;;;;;;4.97;3.17;;;10.60;99.90;;;;;;5050584;28;20084;-62
2022/12/29 02:14:35;;;;;;;4.97;2.90;;;10.60;99.90;;;;;;5050562;28;20045;-62
2022/12/29 02:17:06;;;;;;;5.53;2.95;;;10.70;99.90;;;;;;5052321;28;20045;-61
2022/12/29 02:20:16;;;;;;;4.45;2.90;;;10.70;99.90;;;;;;5053198;28;20064;-62
2022/12/29 02:22:46;;;;;;;3.35;2.67;;;10.70;99.90;;;;;;5053150;28;20132;-63
2022/12/29 02:25:54;;;;;;;4.43;3.10;;;10.70;99.90;;;;;;5052218;28;20053;-63
2022/12/29 02:29:01;;;;;;;3.40;2.70;;;10.70;99.90;;;;;;4994969;28;20045;-63
2022/12/29 02:31:30;;;;;;;3.58;2.75;;;10.70;99.90;;;;;;5008021;28;20552;-64
2022/12/29 02:34:02;;;;;;;4.20;2.70;;;10.70;99.90;;;;;;5040764;28;20052;-66
2022/12/29 02:36:33;;;;;;;6.80;3.10;;;10.70;99.90;;;;;;5049905;28;20475;-65
2022/12/29 02:39:03;;;;;;;5.93;3.00;;;10.70;99.90;;;;;;5051544;28;20091;-66
2022/12/29 02:41:32;;;;;;;5.30;3.50;;;10.70;99.90;;;;;;5067334;28;20083;-57
2022/12/29 02:44:03;;;;;;;7.85;2.65;;;10.70;99.90;;;;;;5054584;28;20056;-62
2022/12/29 02:46:35;;;;;;;4.18;2.47;;;10.60;99.90;;;;;;5042829;28;20099;-65
2022/12/29 02:49:06;;;;;;;3.00;2.30;;;10.60;99.90;;;;;;5052020;28;20076;-61
2022/12/29 02:51:35;;;;;;;5.05;2.50;;;10.60;99.90;;;;;;5048022;28;20080;-60
2022/12/29 02:56:46;;;;;;;4.28;2.30;;;10.60;99.90;;;;;;5052327;28;20048;-61
2022/12/29 02:59:13;;;;;;;3.03;2.30;;;10.60;99.90;;;;;;5052190;28;20080;-64
2022/12/29 03:04:35;;;;;;;2.38;2.03;;;10.60;99.90;;;;;;5058857;28;20052;-65
2022/12/29 03:07:05;;;;;;;3.85;2.30;;;10.60;99.90;;;;;;5051180;28;20095;-64
2022/12/29 03:09:37;;;;;;;3.60;1.90;;;10.60;99.90;;;;;;5049387;28;20088;-60
2022/12/29 03:12:11;;;;;;;3.50;1.60;;;10.60;99.90;;;;;;5052401;28;20091;-65
2022/12/29 03:17:36;;;;;;;5.15;1.92;;;10.60;99.90;;;;;;5050783;28;20061;-64
2022/12/29 03:20:07;;;;;;;4.07;1.60;;;10.60;99.90;;;;;;5054967;28;20076;-64
2022/12/29 03:22:35;;;;;;;3.53;1.80;;;10.60;99.90;;;;;;5056364;28;20040;-64
2022/12/29 03:25:03;;;;;;;4.13;1.83;;;10.60;99.90;;;;;;5057376;28;20052;-64
2022/12/29 03:27:33;;;;;;;2.45;1.60;;;10.60;99.90;;;;;;5059213;28;20084;-64
2022/12/29 03:30:01;;;;;;;2.38;1.70;;;10.60;99.90;;;;;;5058383;28;20493;-64
2022/12/29 03:32:31;;;;;;;2.17;1.58;;;10.60;99.90;;;;;;5057292;28;20140;-63
2022/12/29 03:34:58;;;;;;;4.22;1.88;;;10.60;99.90;;;;;;5054952;28;20508;-60
2022/12/29 03:37:28;;;;;;;3.83;1.77;;;10.50;99.90;;;;;;5055279;28;20041;-64
2022/12/29 03:39:55;;;;;;;2.22;1.52;;;10.50;99.90;;;;;;5058326;28;20408;-64
2022/12/29 03:42:24;;;;;;;4.10;1.50;;;10.50;99.90;;;;;;5056597;28;20132;-62
2022/12/29 03:44:50;;;;;;;5.65;1.92;;;10.50;99.90;;;;;;5057030;28;20110;-63
2022/12/29 03:47:17;;;;;;;3.95;1.50;;;10.50;99.90;;;;;;5058024;28;20088;-62
2022/12/29 03:49:45;;;;;;;4.70;1.75;;;10.50;99.90;;;;;;5058250;28;20057;-63
2022/12/29 03:52:12;;;;;;;7.53;1.85;;;10.60;99.90;;;;;;5055816;28;20405;-63
2022/12/29 03:54:39;;;;;;;6.70;1.63;;;10.60;99.90;;;;;;5058330;28;20048;-62
2022/12/29 03:57:06;;;;;;;2.47;1.55;;;10.50;99.90;;;;;;5055701;28;20122;-63
2022/12/29 03:59:32;;;;;;;3.38;1.42;;;10.60;99.90;;;;;;5056238;28;20053;-64
2022/12/29 04:01:59;;;;;;;6.53;1.80;;;10.50;99.90;;;;;;5057195;28;20500;-64
2022/12/29 04:04:26;;;;;;;8.82;1.85;;;10.60;99.90;;;;;;5061120;28;20053;-66
2022/12/29 04:06:54;;;;;;;4.45;1.48;;;10.50;99.90;;;;;;5059925;28;20101;-68
2022/12/29 04:09:21;;;;;;;13.05;2.00;;;10.50;99.90;;;;;;5064112;28;20118;-69
2022/12/29 04:11:48;;;;;;;4.45;1.90;;;10.50;99.90;;;;;;5047063;28;20060;-66
2022/12/29 04:14:15;;;;;;;8.10;2.70;;;10.40;99.90;;;;;;5056937;28;20160;-64
2022/12/29 04:16:42;;;;;;;8.50;1.92;;;10.40;99.90;;;;;;5063291;28;20049;-64
2022/12/29 04:19:08;;;;;;;5.38;1.20;;;10.30;99.90;;;;;;5057151;28;20092;-60
2022/12/29 04:21:35;;;;;;;6.57;1.30;;;10.30;99.90;;;;;;5057605;28;20045;-61
2022/12/29 04:24:06;;;;;;;4.85;1.25;;;10.30;99.90;;;;;;5056157;28;20449;-69
2022/12/29 04:26:33;;;;;;;11.15;1.33;;;10.20;99.90;;;;;;5062546;28;20527;-71
2022/12/29 04:28:59;;;;;;;3.97;1.20;;;10.20;99.90;;;;;;5062653;28;20061;-70
2022/12/29 04:31:26;;;;;;;3.28;0.93;;;10.10;99.90;;;;;;5059671;28;20053;-70
2022/12/29 04:33:53;;;;;;;6.45;1.65;;;10.10;99.90;;;;;;5059052;28;20693;-62
2022/12/29 04:36:20;;;;;;;7.30;1.50;;;10.00;99.90;;;;;;5058955;28;20091;-58
2022/12/29 04:38:46;;;;;;;5.55;1.40;;;10.00;99.90;;;;;;5046730;28;20098;-61
2022/12/29 04:41:15;;;;;;;6.13;1.60;;;9.90;99.90;;;;;;5045977;28;20049;-64
2022/12/29 04:43:41;;;;;;;9.70;1.70;;;9.90;99.90;;;;;;5052292;28;20081;-64
2022/12/29 04:46:08;;;;;;;6.90;1.55;;;9.90;99.90;;;;;;5055211;28;20190;-65
2022/12/29 04:48:35;;;;;;;10.75;1.83;;;9.90;99.90;;;;;;5053449;28;20455;-63
2022/12/29 04:51:02;;;;;;;13.00;2.03;;;9.90;99.90;;;;;;5055322;28;20071;-66
2022/12/29 04:53:29;;;;;;;8.70;1.70;;;9.90;99.90;;;;;;5052670;28;20623;-64
2022/12/29 04:55:56;;;;;;;9.40;2.00;;;9.90;99.90;;;;;;5052069;28;20080;-61
2022/12/29 04:58:24;;;;;;;6.20;1.23;;;9.90;99.90;;;;;;5053225;28;20080;-64
2022/12/29 05:00:51;;;;;;;11.35;1.58;;;9.90;99.90;;;;;;5070141;28;20508;-65
2022/12/29 05:03:18;;;;;;;9.07;1.80;;;9.90;99.90;;;;;;5056340;28;20053;-65
2022/12/29 05:05:45;;;;;;;15.00;1.95;;;9.90;99.90;;;;;;5053059;28;20440;-63
2022/12/29 05:08:12;;;;;;;8.68;1.60;;;9.90;99.90;;;;;;5054117;28;20091;-62
2022/12/29 05:10:38;;;;;;;11.75;2.05;;;9.90;99.90;;;;;;5052831;28;20126;-62
2022/12/29 05:13:05;;;;;;;9.30;1.40;;;9.80;99.90;;;;;;5053817;28;20109;-64
2022/12/29 05:15:33;;;;;;;16.20;2.10;;;9.80;99.90;;;;;;5053059;28;20052;-64
2022/12/29 05:18:00;;;;;;;10.95;2.22;;;9.80;99.90;;;;;;5052888;28;20119;-64
2022/12/29 05:20:27;;;;;;;11.75;2.33;;;9.80;99.90;;;;;;5052535;28;20125;-63
2022/12/29 05:22:54;;;;;;;12.95;2.33;;;9.80;99.90;;;;;;5053702;28;20045;-65
2022/12/29 05:25:20;;;;;;;10.32;2.55;;;9.80;99.90;;;;;;5054538;28;20447;-62
2022/12/29 05:27:47;;;;;;;14.43;2.60;;;9.70;99.90;;;;;;5052763;28;20057;-65
2022/12/29 05:30:14;;;;;;;9.68;1.92;;;9.70;99.90;;;;;;5052387;28;20088;-65
2022/12/29 05:32:42;;;;;;;9.23;1.98;;;9.70;99.90;;;;;;5052641;28;20056;-65
2022/12/29 05:35:09;;;;;;;8.48;1.60;;;9.70;99.90;;;;;;5052933;28;20614;-64
2022/12/29 05:37:36;;;;;;;5.97;1.55;;;9.60;99.90;;;;;;5054083;28;20049;-66
2022/12/29 05:40:03;;;;;;;8.10;1.58;;;9.60;99.90;;;;;;5052334;28;20332;-63
2022/12/29 05:42:30;;;;;;;12.13;1.50;;;9.60;99.90;;;;;;5049583;28;20241;-61
2022/12/29 05:44:57;;;;;;;11.60;1.50;;;9.60;99.90;;;;;;5050465;28;20091;-60
2022/12/29 05:47:24;;;;;;;6.38;1.40;;;9.60;99.90;;;;;;5051946;28;20466;-64
2022/12/29 05:49:52;;;;;;;10.38;1.70;;;9.60;99.90;;;;;;5052482;28;20068;-52
2022/12/29 05:52:19;;;;;;;7.72;1.88;;;9.60;99.90;;;;;;5052581;28;20049;-64
2022/12/29 05:54:46;;;;;;;10.38;1.58;;;9.50;99.90;;;;;;5049655;28;20088;-58
2022/12/29 05:57:12;;;;;;;8.95;1.80;;;9.50;99.90;;;;;;5052734;28;20052;-64
2022/12/29 05:59:39;;;;;;;5.70;1.35;;;9.50;99.90;;;;;;5052276;28;20087;-64
2022/12/29 06:02:06;;;;;;;11.90;2.22;;;9.50;99.90;;;;;;5052749;28;20049;-63
2022/12/29 06:04:33;;;;;;;7.40;1.50;;;9.50;99.90;;;;;;5050449;28;20083;-62
2022/12/29 06:07:01;;;;;;;8.50;1.38;;;9.50;99.90;;;;;;5071668;28;20079;-64
2022/12/29 06:09:28;;;;;;;9.70;1.58;;;9.50;99.90;;;;;;5060405;28;20098;-63
2022/12/29 06:11:54;;;;;;;13.35;2.05;;;9.50;99.90;;;;;;5060830;28;20404;-64
2022/12/29 06:14:21;;;;;;;11.48;2.05;;;9.50;99.90;;;;;;5051937;28;20045;-64
2022/12/29 06:16:48;;;;;;;8.43;1.40;;;9.60;99.90;;;;;;5051292;28;20099;-65
2022/12/29 06:19:15;;;;;;;11.30;1.80;;;9.50;99.90;;;;;;5051635;28;20051;-63
2022/12/29 06:21:42;;;;;;;12.57;1.85;;;9.50;99.90;;;;;;5051585;28;20049;-64
2022/12/29 06:24:10;;;;;;;16.15;1.90;;;9.50;99.90;;;;;;5052608;28;20374;-63
2022/12/29 06:26:37;;;;;;;14.20;1.95;;;9.50;99.90;;;;;;5050836;28;20463;-64
2022/12/29 06:29:04;;;;;;;14.80;1.67;;;9.50;99.90;;;;;;5050737;28;20481;-60
2022/12/29 06:31:31;;;;;;;14.05;1.95;;;9.50;99.90;;;;;;5050978;28;20076;-63
2022/12/29 06:33:58;;;;;;;11.65;2.20;;;9.50;99.90;;;;;;5051547;28;20126;-62
2022/12/29 06:36:25;;;;;;;21.98;2.95;;;9.50;99.90;;;;;;5052390;28;20465;-64
2022/12/29 06:38:53;;;;;;;19.63;2.63;;;9.50;99.90;;;;;;5050963;28;20427;-63
2022/12/29 06:41:21;;;;;;;10.88;3.05;;;9.50;99.90;;;;;;5051874;28;20128;-64
2022/12/29 06:43:47;;;;;;;17.02;3.05;;;9.50;99.90;;;;;;5051776;28;20045;-56
2022/12/29 06:46:17;;;;;;;14.05;2.83;;;9.50;99.90;;;;;;5052722;28;20140;-60
2022/12/29 06:48:44;;;;;;;19.35;4.28;;;9.50;99.90;;;;;;5051147;28;20056;-63
2022/12/29 06:51:11;;;;;;;13.80;2.03;;;9.50;99.90;;;;;;5046911;28;20466;-63
2022/12/29 06:53:38;;;;;;;13.68;2.45;;;9.40;99.90;;;;;;5050431;28;20132;-62
2022/12/29 06:56:08;;;;;;;11.43;2.40;;;9.50;99.90;;;;;;5052058;28;20088;-63
2022/12/29 06:58:36;;;;;;;13.00;2.03;;;9.40;99.90;;;;;;5052677;28;20099;-64
2022/12/29 07:01:03;;;;;;;15.02;2.40;;;9.40;99.90;;;;;;5050853;28;20061;-61
2022/12/29 07:03:29;;;;;;;13.43;2.35;;;9.40;99.90;;;;;;5050700;28;20106;-63
2022/12/29 07:05:57;;;;;;;13.50;2.35;;;9.40;99.90;;;;;;5051808;28;20049;-65
2022/12/29 07:08:24;;;;;;;12.88;2.28;;;9.40;99.90;;;;;;5050859;28;20088;-63
2022/12/29 07:10:51;;;;;;;14.18;2.35;;;9.50;99.90;;;;;;5051854;28;20404;-64
2022/12/29 07:13:18;;;;;;;16.17;2.13;;;9.50;99.90;;;;;;5050767;28;20084;-63
2022/12/29 07:15:46;;;;;;;11.60;1.90;;;9.50;99.90;;;;;;5051437;28;20511;-61
2022/12/29 07:18:13;;;;;;;16.55;2.50;;;9.50;99.90;;;;;;5049861;28;20088;-63
2022/12/29 07:20:39;;;;;;;15.32;2.38;;;9.50;99.90;;;;;;5051438;28;20124;-64
2022/12/29 07:23:06;;;;;;;14.77;1.98;;;9.50;99.90;;;;;;5052404;28;20049;-61
2022/12/29 07:25:34;;;;;;;14.00;2.58;;;9.50;99.90;;;;;;5051566;28;20102;-66
2022/12/29 07:28:01;;;;;;;13.82;2.70;;;9.50;99.90;;;;;;5050718;28;20132;-64
2022/12/29 07:30:28;;;;;;;14.68;2.15;;;9.50;99.90;;;;;;5051668;28;20057;-63
2022/12/29 07:32:56;;;;;;;18.25;2.60;;;9.50;99.90;;;;;;5051574;28;20053;-64
2022/12/29 07:35:23;;;;;;;13.68;2.53;;;9.50;99.90;;;;;;5049383;28;20139;-60
2022/12/29 07:37:50;;;;;;;15.48;2.53;;;9.50;99.90;;;;;;5052217;28;20048;-59
2022/12/29 07:40:17;;;;;;;15.73;2.13;;;9.50;99.90;;;;;;5051819;28;20440;-63
2022/12/29 07:42:44;;;;;;;15.32;2.70;;;9.50;99.90;;;;;;5051436;28;20057;-64
2022/12/29 07:45:11;;;;;;;15.70;2.28;;;9.50;99.90;;;;;;5050219;28;20129;-65
2022/12/29 07:47:37;;;;;;;21.50;2.33;;;9.50;99.90;;;;;;5051729;28;20440;-57
2022/12/29 07:50:07;;;;;;;15.77;2.28;;;9.50;99.90;;;;;;5051064;28;20052;-60
2022/12/29 07:52:34;;;;;;;17.80;2.65;;;9.50;99.90;;;;;;5045372;28;20467;-62
2022/12/29 07:55:00;;;;;;;16.92;2.15;;;9.50;99.90;;;;;;5047844;28;20115;-65
2022/12/29 07:57:27;;;;;;;19.75;2.90;;;9.50;99.90;;;;;;5048051;28;20060;-65
2022/12/29 07:59:54;;;;;;;14.10;2.22;;;9.40;99.90;;;;;;5048785;28;20053;-63
2022/12/29 08:02:21;;;;;;;13.10;2.28;;;9.40;99.90;;;;;;5071289;28;20098;-64
2022/12/29 08:04:48;;;;;;;13.48;2.55;;;9.40;99.90;;;;;;5052316;28;20049;-63
2022/12/29 08:07:16;;;;;;;13.73;1.80;;;9.40;99.90;;;;;;5053904;28;20053;-66
2022/12/29 08:09:43;;;;;;;16.20;2.90;;;9.40;99.90;;;;;;5052959;28;20057;-64
2022/12/29 08:12:10;;;;;;;20.55;3.03;;;9.50;99.90;;;;;;5052810;28;20056;-65
2022/12/29 08:14:37;;;;;;;15.57;2.80;;;9.40;99.90;;;;;;5055760;28;20088;-65
2022/12/29 08:17:03;;;;;;;12.30;2.50;;;9.50;99.90;;;;;;5054194;28;20469;-66
2022/12/29 08:19:30;;;;;;;12.88;2.38;;;9.50;99.90;;;;;;5055196;28;20118;-63
2022/12/29 08:22:00;;;;;;;25.10;3.20;;;9.50;99.90;;;;;;5054624;28;20061;-66
2022/12/29 08:24:28;;;;;;;18.45;2.38;;;9.50;99.90;;;;;;5054380;28;20076;-64
2022/12/29 08:26:55;;;;;;;22.40;3.80;;;9.50;99.90;;;;;;5055242;28;20458;-61
2022/12/29 08:29:22;;;;;;;21.67;3.13;;;9.50;99.90;;;;;;5053286;28;20085;-65
2022/12/29 08:31:49;;;;;;;24.83;3.28;;;9.40;99.90;;;;;;5053711;28;20059;-60
2022/12/29 08:34:15;;;;;;;24.48;2.97;;;9.40;99.90;;;;;;5050987;28;20632;-65
2022/12/29 08:36:42;;;;;;;19.10;3.38;;;9.50;99.90;;;;;;5051235;28;20128;-64
2022/12/29 08:39:09;;;;;;;16.95;2.58;;;9.50;99.90;;;;;;5050712;28;20489;-63
2022/12/29 08:41:37;;;;;;;19.27;2.95;;;9.50;99.90;;;;;;5062304;28;20084;-64
2022/12/29 08:44:04;;;;;;;15.85;2.25;;;9.50;99.90;;;;;;5053533;28;20052;-62
2022/12/29 08:46:31;;;;;;;20.77;3.17;;;9.50;99.90;;;;;;5053234;28;20053;-53
2022/12/29 08:48:58;;;;;;;27.00;4.18;;;9.60;99.90;;;;;;5051902;28;20602;-63
2022/12/29 08:51:24;;;;;;;18.40;2.90;;;9.50;99.90;;;;;;5055292;28;20053;-64
2022/12/29 08:53:51;;;;;;;17.73;2.75;;;9.60;99.90;;;;;;5053978;28;20085;-64
2022/12/29 08:56:18;;;;;;;19.40;2.97;;;9.50;99.90;;;;;;5051984;28;20115;-63
2022/12/29 08:58:46;;;;;;;17.17;3.05;;;9.60;99.90;;;;;;5042266;28;20076;-65
2022/12/29 09:01:13;;;;;;;17.98;2.90;;;9.60;99.90;;;;;;5054111;28;20088;-65
2022/12/29 09:03:40;;;;;;;16.02;2.80;;;9.60;99.90;;;;;;5054690;28;20497;-64
2022/12/29 09:06:07;;;;;;;15.68;2.45;;;9.60;99.90;;;;;;5052723;28;20102;-64
2022/12/29 09:08:34;;;;;;;17.13;2.67;;;9.70;99.90;;;;;;5053501;28;20057;-64
2022/12/29 09:11:07;;;;;;;16.83;2.40;;;9.70;99.90;;;;;;5048327;28;20424;-64
2022/12/29 09:13:34;;;;;;;14.65;2.97;;;9.70;99.90;;;;;;5052834;28;20481;-65
2022/12/29 09:16:02;;;;;;;19.80;2.70;;;9.70;99.90;;;;;;5053719;28;20080;-46
2022/12/29 09:18:29;;;;;;;19.23;2.58;;;9.70;99.90;;;;;;5069489;28;20057;-64
2022/12/29 09:20:59;;;;;;;19.95;3.70;;;9.60;99.90;;;;;;5053926;28;20079;-65
2022/12/29 09:23:26;;;;;;;20.13;2.80;;;9.60;99.90;;;;;;5053614;28;20128;-64
2022/12/29 09:25:53;;;;;;;19.90;3.55;;;9.50;99.90;;;;;;5053126;28;20076;-63
2022/12/29 09:28:19;;;;;;;13.32;2.35;;;9.60;99.90;;;;;;5052739;28;20080;-66
2022/12/29 09:30:46;;;;;;;19.45;2.88;;;9.60;99.90;;;;;;5061675;28;20076;-62
2022/12/29 09:33:14;;;;;;;12.82;2.63;;;9.50;99.90;;;;;;5052832;28;20106;-64
2022/12/29 09:35:43;;;;;;;15.50;3.13;;;9.50;99.90;;;;;;5055719;28;20638;-65
2022/12/29 09:38:09;;;;;;;17.63;3.00;;;9.50;99.90;;;;;;5051751;28;20055;-66
2022/12/29 09:40:36;;;;;;;15.70;2.75;;;9.50;99.90;;;;;;5053001;28;20128;-66
2022/12/29 09:43:12;;;;;;;19.08;3.35;;;9.50;99.90;;;;;;5054728;28;20073;-64
2022/12/29 09:45:41;;;;;;;19.20;2.90;;;9.50;99.90;;;;;;5051371;28;20077;-64
2022/12/29 09:48:11;;;;;;;20.35;2.60;;;9.50;99.90;;;;;;5055161;28;20045;-68
2022/12/29 09:50:39;;;;;;;19.67;2.92;;;9.50;99.90;;;;;;5057142;28;20072;-60
2022/12/29 09:53:11;;;;;;;18.05;2.90;;;9.50;99.90;;;;;;5053081;28;20464;-69
2022/12/29 09:55:39;;;;;;;18.63;3.13;;;9.50;99.90;;;;;;5058349;28;20057;-71
2022/12/29 09:58:07;;;;;;;21.92;2.72;;;9.40;99.90;;;;;;5054378;28;20037;-70
2022/12/29 10:00:37;;;;;;;25.83;3.00;;;9.40;99.90;;;;;;5057529;28;20052;-62
2022/12/29 10:03:06;;;;;;;31.60;5.82;;;9.40;99.90;;;;;;5052654;28;20461;-55
2022/12/29 10:05:36;;;;;;;15.38;3.38;;;9.30;99.90;;;;;;5055374;28;20439;-57
2022/12/29 10:08:16;;;;;;;17.92;2.78;;;9.30;99.90;;;;;;5053123;28;20049;-59
2022/12/29 10:10:46;;;;;;;18.60;3.58;;;9.30;99.90;;;;;;5050454;28;20049;-58
2022/12/29 10:13:22;;;;;;;22.30;3.40;;;9.30;99.90;;;;;;5051469;28;20052;-58
2022/12/29 10:15:56;;;;;;;16.30;3.17;;;9.20;99.90;;;;;;5052547;28;20106;-58
2022/12/29 10:18:49;;;;;;;19.80;4.85;;;9.20;99.90;;;;;;5051472;28;20380;-58
2022/12/29 10:21:19;;;;;;;19.65;3.67;;;9.20;99.90;;;;;;5045890;28;20053;-58
2022/12/29 10:23:49;;;;;;;19.15;2.92;;;9.20;99.90;;;;;;5051332;28;20107;-59
2022/12/29 10:26:19;;;;;;;19.73;2.95;;;9.20;99.90;;;;;;5051658;28;20496;-60
2022/12/29 10:28:47;;;;;;;22.95;3.30;;;9.20;99.90;;;;;;5048338;28;20061;-55
2022/12/29 10:31:19;;;;;;;14.50;2.72;;;9.20;99.90;;;;;;5048092;28;20080;-61
2022/12/29 10:33:46;;;;;;;17.20;2.80;;;9.20;99.90;;;;;;5053094;28;20048;-59
2022/12/29 10:36:16;;;;;;;15.45;2.30;;;9.20;99.90;;;;;;5050985;28;20061;-60
2022/12/29 10:38:49;;;;;;;16.55;2.80;;;9.10;99.90;;;;;;5052793;28;20068;-59
2022/12/29 10:41:18;;;;;;;15.82;2.40;;;9.20;99.90;;;;;;5052307;28;20469;-64
2022/12/29 10:43:46;;;;;;;20.38;2.55;;;9.10;99.90;;;;;;5052274;28;20052;-59
2022/12/29 10:46:15;;;;;;;19.15;2.80;;;9.10;99.90;;;;;;5053598;28;20076;-64
2022/12/29 10:48:45;;;;;;;14.85;2.80;;;9.10;99.90;;;;;;5055821;28;20099;-58
2022/12/29 10:51:12;;;;;;;13.98;2.30;;;9.10;99.90;;;;;;5051501;28;20048;-56
2022/12/29 10:53:41;;;;;;;17.13;2.60;;;9.00;99.90;;;;;;5052113;28;20379;-61
2022/12/29 10:56:14;;;;;;;17.83;2.28;;;9.10;99.90;;;;;;5053416;28;20045;-65
2022/12/29 10:58:41;;;;;;;22.40;3.35;;;9.10;99.90;;;;;;5051480;28;20099;-61
2022/12/29 11:01:09;;;;;;;12.15;2.20;;;9.00;99.90;;;;;;5052317;28;20044;-67
2022/12/29 11:03:54;;;;;;;13.70;2.20;;;9.10;99.90;;;;;;5051957;28;20080;-64
2022/12/29 11:06:24;;;;;;;15.98;2.45;;;9.10;99.90;;;;;;5052602;28;20171;-63
2022/12/29 11:08:54;;;;;;;11.02;2.33;;;9.20;99.90;;;;;;5056243;28;20143;-62
2022/12/29 11:11:25;;;;;;;16.88;3.20;;;9.20;99.90;;;;;;5058369;28;20482;-70
2022/12/29 11:13:57;;;;;;;14.90;2.70;;;9.20;99.90;;;;;;5058562;28;20130;-65
2022/12/29 11:16:30;;;;;;;15.00;2.13;;;9.20;99.90;;;;;;5055544;28;20049;-62
2022/12/29 11:18:57;;;;;;;13.73;2.65;;;9.40;99.90;;;;;;5054630;28;20120;-67
2022/12/29 11:21:33;;;;;;;9.23;1.90;;;9.30;99.90;;;;;;5053723;28;20439;-57
2022/12/29 11:24:01;;;;;;;15.57;2.40;;;9.30;99.90;;;;;;5056218;28;20096;-69
2022/12/29 11:26:29;;;;;;;12.73;2.25;;;9.30;99.90;;;;;;5054144;28;20095;-64
2022/12/29 11:29:18;;;;;;;16.42;2.63;;;9.40;99.90;;;;;;5053507;28;20103;-68
2022/12/29 11:31:46;;;;;;;11.82;2.53;;;9.30;99.90;;;;;;5051616;28;20073;-62
2022/12/29 11:34:18;;;;;;;15.18;2.90;;;9.40;99.90;;;;;;5056926;28;20477;-71
2022/12/29 11:36:45;;;;;;;17.13;3.00;;;9.40;99.90;;;;;;5054600;28;20533;-68
2022/12/29 11:39:27;;;;;;;12.48;2.58;;;9.40;99.90;;;;;;5055382;28;20057;-63
2022/12/29 11:41:54;;;;;;;;;;;9.40;99.90;;;;;;5042782;28;20409;-73
2022/12/29 11:44:21;;;;;;;17.80;3.03;;;9.40;99.90;;;;;;5046466;28;19925;-71
2022/12/29 11:46:50;;;;;;;20.38;3.08;;;9.30;99.90;;;;;;5061373;28;20404;-71
2022/12/29 11:49:20;;;;;;;23.95;3.75;;;9.40;99.90;;;;;;5057218;28;20045;-66
2022/12/29 11:51:48;;;;;;;20.67;4.32;;;9.50;99.90;;;;;;5053289;28;20060;-68
2022/12/29 11:54:17;;;;;;;25.70;4.63;;;9.50;99.90;;;;;;5060081;28;20091;-69
2022/12/29 11:56:44;;;;;;;21.35;3.58;;;9.50;99.90;;;;;;5059262;28;20059;-71
2022/12/29 11:59:42;;;;;;;19.63;3.40;;;9.60;99.90;;;;;;5060011;28;20061;-70
2022/12/29 12:02:27;;;;;;;24.13;3.45;;;9.60;99.90;;;;;;5058642;28;20113;-69
2022/12/29 12:04:57;;;;;;;27.27;3.80;;;9.60;99.90;;;;;;5058223;28;20045;-73
2022/12/29 12:07:25;;;;;;;20.52;3.28;;;9.60;99.90;;;;;;5059037;28;20574;-67
2022/12/29 12:09:54;;;;;;;21.80;3.35;;;9.60;99.90;;;;;;5057497;28;20088;-69
2022/12/29 12:12:24;;;;;;;22.10;4.55;;;9.60;99.90;;;;;;5058592;28;20704;-68
2022/12/29 12:14:56;;;;;;;24.27;4.07;;;9.70;99.90;;;;;;5058250;28;20200;-68
2022/12/29 12:17:27;;;;;;;20.77;2.97;;;9.70;99.90;;;;;;5055790;28;20053;-69
2022/12/29 12:19:57;;;;;;;21.90;3.67;;;9.80;99.90;;;;;;5052634;28;20079;-68
2022/12/29 12:22:28;;;;;;;18.38;3.05;;;9.80;99.90;;;;;;5057740;28;20095;-67
2022/12/29 12:24:56;;;;;;;21.35;3.13;;;9.90;99.90;;;;;;5058192;28;20057;-69
2022/12/29 12:27:25;;;;;;;27.02;4.07;;;9.80;99.90;;;;;;5057723;28;20103;-66
2022/12/29 12:29:57;;;;;;;23.88;4.15;;;9.80;99.90;;;;;;5055795;28;20327;-51
2022/12/29 12:32:25;;;;;;;31.70;5.20;;;9.80;99.90;;;;;;5051407;28;20106;-56
2022/12/29 12:34:52;;;;;;;26.95;3.95;;;9.70;99.90;;;;;;5056956;28;20114;-68
2022/12/29 12:37:53;;;;;;;25.80;3.97;;;9.70;99.90;;;;;;5055209;28;20088;-66
2022/12/29 12:40:43;;;;;;;24.20;4.32;;;9.60;99.90;;;;;;4973980;28;20051;-63
2022/12/29 12:43:20;;;;;;;25.45;4.60;;;9.60;99.90;;;;;;5051652;28;20128;-65
2022/12/29 12:45:54;;;;;;;29.25;4.78;;;9.70;99.90;;;;;;5053677;28;20162;-64
2022/12/29 12:48:29;;;;;;;31.33;4.18;;;9.70;99.90;;;;;;5055793;28;20469;-65
2022/12/29 12:50:59;;;;;;;24.50;4.07;;;9.70;99.90;;;;;;5054220;28;20114;-65
2022/12/29 12:53:39;;;;;;;31.40;5.10;;;9.70;99.90;;;;;;5054593;28;20053;-59
2022/12/29 12:56:17;;;;;;;106.68;38.38;;;9.70;99.90;;;;;;5054909;28;20084;-62
2022/12/29 12:58:48;;;;;;;39.55;15.65;;;9.70;99.90;;;;;;5055222;28;20045;-64
2022/12/29 13:01:28;;;;;;;32.85;9.27;;;9.70;99.90;;;;;;5052145;28;20076;-61
2022/12/29 13:04:05;;;;;;;30.17;4.47;;;9.70;99.90;;;;;;5053999;28;20075;-63
2022/12/29 13:06:37;;;;;;;20.60;3.67;;;9.80;99.90;;;;;;5054692;28;20527;-66
2022/12/29 13:09:15;;;;;;;20.52;3.30;;;9.80;99.90;;;;;;5053702;28;20091;-62
2022/12/29 13:11:50;;;;;;;24.10;3.97;;;9.80;99.90;;;;;;5052861;28;20111;-63
2022/12/29 13:14:25;;;;;;;24.02;3.83;;;9.90;99.90;;;;;;5053788;28;20092;-63
2022/12/29 13:16:56;;;;;;;22.30;4.53;;;9.90;99.90;;;;;;5053383;28;20111;-62
2022/12/29 13:19:26;;;;;;;19.52;3.70;;;9.90;99.90;;;;;;5053549;28;20095;-62
2022/12/29 13:21:58;;;;;;;22.90;3.00;;;9.90;99.90;;;;;;5053934;28;20461;-63
2022/12/29 13:24:26;;;;;;;21.45;2.90;;;9.90;99.90;;;;;;5053660;28;20091;-63
2022/12/29 13:26:55;;;;;;;21.98;2.92;;;9.80;99.90;;;;;;5054444;28;20141;-63
2022/12/29 13:29:23;;;;;;;24.63;4.00;;;9.80;99.90;;;;;;5052099;28;20401;-63
2022/12/29 13:31:55;;;;;;;23.38;3.10;;;9.70;99.90;;;;;;5034390;28;20107;-63
2022/12/29 13:34:28;;;;;;;23.67;3.63;;;9.70;99.90;;;;;;5036801;28;20050;-63